METAR Data

Data at: 0135 UTC 16 Jan 2019

METAR for:KJFK (New York/Kennedy Int, NY, US)
Text:KJFK 160051Z 00000KT 10SM FEW250 M01/M09 A3015 RMK AO2 SLP209 T10061089
Temperature: -0.6°C ( 31°F)
Dewpoint: -8.9°C ( 16°F) [RH = 53%]
Pressure (altimeter):30.15 inches Hg (1021.1 mb) [Sea level pressure: 1020.9 mb]
Winds:calm
Visibility:10 or more sm (16+ km)
Ceiling:at least 12,000 feet AGL
Clouds: few clouds at 25000 feet AGL